sensor_id;sensor_type;location;lat;lon;timestamp;P1;durP1;ratioP1;P2;durP2;ratioP2
75758;SDS011;64371;47.566;19.086;2023-04-06T00:02:00;13.02;;;6.95;;
75758;SDS011;64371;47.566;19.086;2023-04-06T00:05:02;16.85;;;7.35;;
75758;SDS011;64371;47.566;19.086;2023-04-06T00:08:05;16.23;;;8.02;;
75758;SDS011;64371;47.566;19.086;2023-04-06T00:11:10;11.93;;;6.80;;
75758;SDS011;64371;47.566;19.086;2023-04-06T00:14:13;11.25;;;7.03;;
75758;SDS011;64371;47.566;19.086;2023-04-06T00:17:15;14.95;;;7.45;;
75758;SDS011;64371;47.566;19.086;2023-04-06T00:20:18;16.35;;;8.05;;
75758;SDS011;64371;47.566;19.086;2023-04-06T00:23:21;17.20;;;8.82;;
75758;SDS011;64371;47.566;19.086;2023-04-06T00:26:23;21.50;;;8.20;;
75758;SDS011;64371;47.566;19.086;2023-04-06T00:29:27;16.27;;;8.20;;
75758;SDS011;64371;47.566;19.086;2023-04-06T00:32:30;16.73;;;8.57;;
75758;SDS011;64371;47.566;19.086;2023-04-06T00:35:32;17.30;;;7.68;;
75758;SDS011;64371;47.566;19.086;2023-04-06T00:38:35;18.67;;;8.75;;
75758;SDS011;64371;47.566;19.086;2023-04-06T00:41:38;16.20;;;8.63;;
75758;SDS011;64371;47.566;19.086;2023-04-06T00:44:42;19.15;;;8.63;;
75758;SDS011;64371;47.566;19.086;2023-04-06T00:47:45;17.63;;;9.02;;
75758;SDS011;64371;47.566;19.086;2023-04-06T00:50:47;18.52;;;8.65;;
75758;SDS011;64371;47.566;19.086;2023-04-06T00:53:50;18.50;;;8.07;;
75758;SDS011;64371;47.566;19.086;2023-04-06T00:56:52;16.00;;;8.40;;
75758;SDS011;64371;47.566;19.086;2023-04-06T00:59:55;17.90;;;8.25;;
75758;SDS011;64371;47.566;19.086;2023-04-06T01:02:58;17.00;;;8.32;;
75758;SDS011;64371;47.566;19.086;2023-04-06T01:06:08;17.45;;;8.85;;
75758;SDS011;64371;47.566;19.086;2023-04-06T01:09:14;16.08;;;9.32;;
75758;SDS011;64371;47.566;19.086;2023-04-06T01:12:17;21.37;;;9.87;;
75758;SDS011;64371;47.566;19.086;2023-04-06T01:15:19;18.00;;;9.63;;
75758;SDS011;64371;47.566;19.086;2023-04-06T01:18:26;19.27;;;10.52;;
75758;SDS011;64371;47.566;19.086;2023-04-06T01:21:39;18.30;;;9.75;;
75758;SDS011;64371;47.566;19.086;2023-04-06T01:24:48;18.55;;;10.35;;
75758;SDS011;64371;47.566;19.086;2023-04-06T01:27:56;18.97;;;10.30;;
75758;SDS011;64371;47.566;19.086;2023-04-06T01:31:16;20.83;;;9.63;;
75758;SDS011;64371;47.566;19.086;2023-04-06T01:34:23;20.83;;;10.20;;
75758;SDS011;64371;47.566;19.086;2023-04-06T01:37:27;19.13;;;8.82;;
75758;SDS011;64371;47.566;19.086;2023-04-06T01:40:32;18.50;;;9.30;;
75758;SDS011;64371;47.566;19.086;2023-04-06T01:43:34;18.30;;;9.43;;
75758;SDS011;64371;47.566;19.086;2023-04-06T01:46:40;19.23;;;10.00;;
75758;SDS011;64371;47.566;19.086;2023-04-06T01:49:45;20.70;;;9.82;;
75758;SDS011;64371;47.566;19.086;2023-04-06T01:52:49;14.65;;;7.85;;
75758;SDS011;64371;47.566;19.086;2023-04-06T01:55:52;13.85;;;7.50;;
75758;SDS011;64371;47.566;19.086;2023-04-06T01:59:05;17.53;;;7.43;;
75758;SDS011;64371;47.566;19.086;2023-04-06T02:02:13;17.48;;;7.72;;
75758;SDS011;64371;47.566;19.086;2023-04-06T02:05:25;17.42;;;7.85;;
75758;SDS011;64371;47.566;19.086;2023-04-06T02:08:29;16.08;;;7.72;;
75758;SDS011;64371;47.566;19.086;2023-04-06T02:11:32;14.95;;;7.38;;
75758;SDS011;64371;47.566;19.086;2023-04-06T02:14:35;15.97;;;7.70;;
75758;SDS011;64371;47.566;19.086;2023-04-06T02:17:38;18.73;;;7.95;;
75758;SDS011;64371;47.566;19.086;2023-04-06T02:20:41;14.05;;;7.30;;
75758;SDS011;64371;47.566;19.086;2023-04-06T02:23:44;15.65;;;7.45;;
75758;SDS011;64371;47.566;19.086;2023-04-06T02:26:46;15.27;;;7.97;;
75758;SDS011;64371;47.566;19.086;2023-04-06T02:29:48;13.17;;;7.27;;
75758;SDS011;64371;47.566;19.086;2023-04-06T02:32:54;15.98;;;7.38;;
75758;SDS011;64371;47.566;19.086;2023-04-06T02:35:57;14.05;;;7.88;;
75758;SDS011;64371;47.566;19.086;2023-04-06T02:39:00;15.60;;;7.43;;
75758;SDS011;64371;47.566;19.086;2023-04-06T02:42:03;14.50;;;7.30;;
75758;SDS011;64371;47.566;19.086;2023-04-06T02:45:06;15.77;;;8.07;;
75758;SDS011;64371;47.566;19.086;2023-04-06T02:48:14;13.75;;;7.18;;
75758;SDS011;64371;47.566;19.086;2023-04-06T02:51:16;16.05;;;7.03;;
75758;SDS011;64371;47.566;19.086;2023-04-06T02:54:24;15.73;;;8.30;;
75758;SDS011;64371;47.566;19.086;2023-04-06T02:57:27;14.60;;;7.45;;
75758;SDS011;64371;47.566;19.086;2023-04-06T03:00:29;19.70;;;8.37;;
75758;SDS011;64371;47.566;19.086;2023-04-06T03:03:32;16.50;;;8.10;;
75758;SDS011;64371;47.566;19.086;2023-04-06T03:06:34;16.55;;;7.63;;
75758;SDS011;64371;47.566;19.086;2023-04-06T03:09:46;13.98;;;7.40;;
75758;SDS011;64371;47.566;19.086;2023-04-06T03:12:49;15.75;;;7.70;;
75758;SDS011;64371;47.566;19.086;2023-04-06T03:15:55;17.20;;;8.83;;
75758;SDS011;64371;47.566;19.086;2023-04-06T03:18:58;18.88;;;8.60;;
75758;SDS011;64371;47.566;19.086;2023-04-06T03:22:01;17.85;;;9.45;;
75758;SDS011;64371;47.566;19.086;2023-04-06T03:25:03;17.55;;;9.15;;
75758;SDS011;64371;47.566;19.086;2023-04-06T03:28:07;21.50;;;9.57;;
75758;SDS011;64371;47.566;19.086;2023-04-06T03:31:18;19.33;;;9.00;;
75758;SDS011;64371;47.566;19.086;2023-04-06T03:34:33;19.83;;;9.52;;
75758;SDS011;64371;47.566;19.086;2023-04-06T03:37:36;20.83;;;9.68;;
75758;SDS011;64371;47.566;19.086;2023-04-06T03:40:39;22.40;;;9.88;;
75758;SDS011;64371;47.566;19.086;2023-04-06T03:43:43;19.65;;;9.23;;
75758;SDS011;64371;47.566;19.086;2023-04-06T03:46:45;19.87;;;10.33;;
75758;SDS011;64371;47.566;19.086;2023-04-06T03:49:48;22.42;;;9.90;;
75758;SDS011;64371;47.566;19.086;2023-04-06T03:52:50;20.90;;;10.10;;
75758;SDS011;64371;47.566;19.086;2023-04-06T03:55:53;23.48;;;10.23;;
75758;SDS011;64371;47.566;19.086;2023-04-06T03:58:55;18.15;;;9.70;;
75758;SDS011;64371;47.566;19.086;2023-04-06T04:01:58;18.87;;;9.47;;
75758;SDS011;64371;47.566;19.086;2023-04-06T04:05:00;20.52;;;9.02;;
75758;SDS011;64371;47.566;19.086;2023-04-06T04:08:03;22.75;;;9.82;;
75758;SDS011;64371;47.566;19.086;2023-04-06T04:11:05;20.17;;;9.25;;
75758;SDS011;64371;47.566;19.086;2023-04-06T04:14:08;22.67;;;10.55;;
75758;SDS011;64371;47.566;19.086;2023-04-06T04:17:10;19.50;;;9.57;;
75758;SDS011;64371;47.566;19.086;2023-04-06T04:20:13;19.00;;;9.73;;
75758;SDS011;64371;47.566;19.086;2023-04-06T04:23:15;20.48;;;9.25;;
75758;SDS011;64371;47.566;19.086;2023-04-06T04:26:18;19.08;;;9.18;;
75758;SDS011;64371;47.566;19.086;2023-04-06T04:29:21;19.73;;;9.48;;
75758;SDS011;64371;47.566;19.086;2023-04-06T04:32:26;18.33;;;9.63;;
75758;SDS011;64371;47.566;19.086;2023-04-06T04:35:31;21.15;;;10.38;;
75758;SDS011;64371;47.566;19.086;2023-04-06T04:38:34;20.50;;;10.55;;
75758;SDS011;64371;47.566;19.086;2023-04-06T04:41:36;17.42;;;9.20;;
75758;SDS011;64371;47.566;19.086;2023-04-06T04:44:42;19.35;;;9.27;;
75758;SDS011;64371;47.566;19.086;2023-04-06T04:47:45;15.47;;;8.07;;
75758;SDS011;64371;47.566;19.086;2023-04-06T04:50:50;15.45;;;7.30;;
75758;SDS011;64371;47.566;19.086;2023-04-06T04:53:57;31.67;;;8.48;;
75758;SDS011;64371;47.566;19.086;2023-04-06T04:57:04;22.27;;;9.38;;
75758;SDS011;64371;47.566;19.086;2023-04-06T05:00:15;16.67;;;8.27;;
75758;SDS011;64371;47.566;19.086;2023-04-06T05:03:23;42.20;;;8.83;;
75758;SDS011;64371;47.566;19.086;2023-04-06T05:06:33;17.35;;;7.82;;
75758;SDS011;64371;47.566;19.086;2023-04-06T05:09:36;15.95;;;8.35;;
75758;SDS011;64371;47.566;19.086;2023-04-06T05:12:38;16.63;;;8.77;;
75758;SDS011;64371;47.566;19.086;2023-04-06T05:15:44;19.55;;;7.78;;
75758;SDS011;64371;47.566;19.086;2023-04-06T05:18:58;19.70;;;9.13;;
75758;SDS011;64371;47.566;19.086;2023-04-06T05:22:07;23.17;;;10.00;;
75758;SDS011;64371;47.566;19.086;2023-04-06T05:25:12;19.30;;;8.20;;
75758;SDS011;64371;47.566;19.086;2023-04-06T05:28:16;25.75;;;10.98;;
75758;SDS011;64371;47.566;19.086;2023-04-06T05:31:19;20.55;;;9.70;;
75758;SDS011;64371;47.566;19.086;2023-04-06T05:34:24;21.80;;;9.83;;
75758;SDS011;64371;47.566;19.086;2023-04-06T05:37:28;17.35;;;8.77;;
75758;SDS011;64371;47.566;19.086;2023-04-06T05:40:31;15.65;;;8.77;;
75758;SDS011;64371;47.566;19.086;2023-04-06T05:43:34;20.70;;;8.95;;
75758;SDS011;64371;47.566;19.086;2023-04-06T05:46:37;17.80;;;10.05;;
75758;SDS011;64371;47.566;19.086;2023-04-06T05:49:42;18.23;;;8.97;;
75758;SDS011;64371;47.566;19.086;2023-04-06T05:52:50;17.38;;;8.60;;
75758;SDS011;64371;47.566;19.086;2023-04-06T05:55:56;18.38;;;9.30;;
75758;SDS011;64371;47.566;19.086;2023-04-06T05:58:58;17.85;;;9.07;;
75758;SDS011;64371;47.566;19.086;2023-04-06T06:02:03;20.92;;;9.45;;
75758;SDS011;64371;47.566;19.086;2023-04-06T06:05:09;24.63;;;11.67;;
75758;SDS011;64371;47.566;19.086;2023-04-06T06:08:14;28.58;;;12.55;;
75758;SDS011;64371;47.566;19.086;2023-04-06T06:11:17;30.70;;;12.52;;
75758;SDS011;64371;47.566;19.086;2023-04-06T06:14:20;28.92;;;12.93;;
75758;SDS011;64371;47.566;19.086;2023-04-06T06:17:23;22.50;;;10.57;;
75758;SDS011;64371;47.566;19.086;2023-04-06T06:20:26;24.27;;;11.23;;
75758;SDS011;64371;47.566;19.086;2023-04-06T06:23:31;23.58;;;11.65;;
75758;SDS011;64371;47.566;19.086;2023-04-06T06:26:33;17.80;;;10.25;;
75758;SDS011;64371;47.566;19.086;2023-04-06T06:29:39;22.70;;;11.68;;
75758;SDS011;64371;47.566;19.086;2023-04-06T06:32:42;24.73;;;11.32;;
75758;SDS011;64371;47.566;19.086;2023-04-06T06:35:44;20.77;;;11.57;;
75758;SDS011;64371;47.566;19.086;2023-04-06T06:38:47;21.15;;;11.50;;
75758;SDS011;64371;47.566;19.086;2023-04-06T06:41:55;23.85;;;12.63;;
75758;SDS011;64371;47.566;19.086;2023-04-06T06:45:16;22.23;;;11.25;;
75758;SDS011;64371;47.566;19.086;2023-04-06T06:48:18;23.80;;;11.55;;
75758;SDS011;64371;47.566;19.086;2023-04-06T06:51:22;19.77;;;10.33;;
75758;SDS011;64371;47.566;19.086;2023-04-06T06:54:24;19.35;;;10.57;;
75758;SDS011;64371;47.566;19.086;2023-04-06T06:57:27;20.30;;;10.35;;
75758;SDS011;64371;47.566;19.086;2023-04-06T07:00:30;21.52;;;9.80;;
75758;SDS011;64371;47.566;19.086;2023-04-06T07:03:32;20.17;;;11.13;;
75758;SDS011;64371;47.566;19.086;2023-04-06T07:06:35;23.57;;;10.80;;
75758;SDS011;64371;47.566;19.086;2023-04-06T07:09:38;26.08;;;10.70;;
75758;SDS011;64371;47.566;19.086;2023-04-06T07:12:41;26.27;;;11.20;;
75758;SDS011;64371;47.566;19.086;2023-04-06T07:15:43;27.42;;;12.13;;
75758;SDS011;64371;47.566;19.086;2023-04-06T07:18:46;26.20;;;11.43;;
75758;SDS011;64371;47.566;19.086;2023-04-06T07:21:49;23.40;;;10.07;;
75758;SDS011;64371;47.566;19.086;2023-04-06T07:24:51;20.08;;;9.43;;
75758;SDS011;64371;47.566;19.086;2023-04-06T07:27:54;18.30;;;9.38;;
75758;SDS011;64371;47.566;19.086;2023-04-06T07:30:58;15.70;;;9.00;;
75758;SDS011;64371;47.566;19.086;2023-04-06T07:34:01;15.88;;;8.45;;
75758;SDS011;64371;47.566;19.086;2023-04-06T07:37:03;18.67;;;9.57;;
75758;SDS011;64371;47.566;19.086;2023-04-06T07:40:07;14.98;;;8.10;;
75758;SDS011;64371;47.566;19.086;2023-04-06T07:43:10;14.02;;;7.88;;
75758;SDS011;64371;47.566;19.086;2023-04-06T07:46:12;17.13;;;8.18;;
75758;SDS011;64371;47.566;19.086;2023-04-06T07:49:15;14.93;;;8.07;;
75758;SDS011;64371;47.566;19.086;2023-04-06T07:52:18;12.10;;;6.60;;
75758;SDS011;64371;47.566;19.086;2023-04-06T07:55:21;12.48;;;6.13;;
75758;SDS011;64371;47.566;19.086;2023-04-06T07:58:23;11.55;;;6.07;;
75758;SDS011;64371;47.566;19.086;2023-04-06T08:01:27;71.43;;;22.80;;
75758;SDS011;64371;47.566;19.086;2023-04-06T08:04:30;173.48;;;57.00;;
75758;SDS011;64371;47.566;19.086;2023-04-06T08:07:32;53.30;;;23.53;;
75758;SDS011;64371;47.566;19.086;2023-04-06T08:10:35;36.20;;;19.60;;
75758;SDS011;64371;47.566;19.086;2023-04-06T08:13:37;14.25;;;7.65;;
75758;SDS011;64371;47.566;19.086;2023-04-06T08:16:40;11.02;;;6.32;;
75758;SDS011;64371;47.566;19.086;2023-04-06T08:19:43;12.07;;;7.00;;
75758;SDS011;64371;47.566;19.086;2023-04-06T08:22:46;10.10;;;6.03;;
75758;SDS011;64371;47.566;19.086;2023-04-06T08:25:48;12.38;;;6.25;;
75758;SDS011;64371;47.566;19.086;2023-04-06T08:28:51;9.45;;;5.07;;
75758;SDS011;64371;47.566;19.086;2023-04-06T08:31:53;10.10;;;5.45;;
75758;SDS011;64371;47.566;19.086;2023-04-06T08:34:55;12.05;;;5.47;;
75758;SDS011;64371;47.566;19.086;2023-04-06T08:37:58;9.67;;;6.07;;
75758;SDS011;64371;47.566;19.086;2023-04-06T08:41:06;11.55;;;6.10;;
75758;SDS011;64371;47.566;19.086;2023-04-06T08:44:12;11.30;;;6.10;;
75758;SDS011;64371;47.566;19.086;2023-04-06T08:47:14;9.50;;;5.97;;
75758;SDS011;64371;47.566;19.086;2023-04-06T08:50:17;10.93;;;5.60;;
75758;SDS011;64371;47.566;19.086;2023-04-06T08:53:20;9.40;;;5.03;;
75758;SDS011;64371;47.566;19.086;2023-04-06T08:56:26;12.13;;;6.03;;
75758;SDS011;64371;47.566;19.086;2023-04-06T08:59:29;12.25;;;6.00;;
75758;SDS011;64371;47.566;19.086;2023-04-06T09:02:33;8.05;;;4.97;;
75758;SDS011;64371;47.566;19.086;2023-04-06T09:05:36;9.30;;;5.50;;
75758;SDS011;64371;47.566;19.086;2023-04-06T09:08:39;9.63;;;5.13;;
75758;SDS011;64371;47.566;19.086;2023-04-06T09:11:43;9.55;;;6.07;;
75758;SDS011;64371;47.566;19.086;2023-04-06T09:14:52;8.52;;;5.15;;
75758;SDS011;64371;47.566;19.086;2023-04-06T09:17:56;10.10;;;6.00;;
75758;SDS011;64371;47.566;19.086;2023-04-06T09:21:00;12.20;;;6.57;;
75758;SDS011;64371;47.566;19.086;2023-04-06T09:24:04;14.80;;;6.77;;
75758;SDS011;64371;47.566;19.086;2023-04-06T09:27:08;20.45;;;9.65;;
75758;SDS011;64371;47.566;19.086;2023-04-06T09:30:11;10.70;;;6.00;;
75758;SDS011;64371;47.566;19.086;2023-04-06T09:33:22;10.48;;;6.07;;
75758;SDS011;64371;47.566;19.086;2023-04-06T09:36:32;10.65;;;6.22;;
75758;SDS011;64371;47.566;19.086;2023-04-06T09:39:35;10.80;;;6.27;;
75758;SDS011;64371;47.566;19.086;2023-04-06T09:42:38;12.30;;;6.57;;
75758;SDS011;64371;47.566;19.086;2023-04-06T09:45:43;7.55;;;4.90;;
75758;SDS011;64371;47.566;19.086;2023-04-06T09:48:46;10.60;;;5.72;;
75758;SDS011;64371;47.566;19.086;2023-04-06T09:51:53;11.40;;;6.40;;
75758;SDS011;64371;47.566;19.086;2023-04-06T09:54:59;12.50;;;6.00;;
75758;SDS011;64371;47.566;19.086;2023-04-06T09:58:06;9.25;;;5.20;;
75758;SDS011;64371;47.566;19.086;2023-04-06T10:01:15;8.07;;;4.28;;
75758;SDS011;64371;47.566;19.086;2023-04-06T10:07:33;9.68;;;5.90;;
75758;SDS011;64371;47.566;19.086;2023-04-06T10:10:50;9.60;;;5.30;;
75758;SDS011;64371;47.566;19.086;2023-04-06T10:13:53;11.02;;;5.10;;
75758;SDS011;64371;47.566;19.086;2023-04-06T10:16:57;7.22;;;4.72;;
75758;SDS011;64371;47.566;19.086;2023-04-06T10:20:15;10.02;;;5.55;;
75758;SDS011;64371;47.566;19.086;2023-04-06T10:23:33;11.13;;;6.82;;
75758;SDS011;64371;47.566;19.086;2023-04-06T10:26:38;10.13;;;5.30;;
75758;SDS011;64371;47.566;19.086;2023-04-06T10:29:42;9.95;;;5.68;;
75758;SDS011;64371;47.566;19.086;2023-04-06T10:32:48;10.43;;;6.00;;
75758;SDS011;64371;47.566;19.086;2023-04-06T10:35:51;10.18;;;5.43;;
75758;SDS011;64371;47.566;19.086;2023-04-06T10:38:54;7.55;;;4.43;;
75758;SDS011;64371;47.566;19.086;2023-04-06T10:42:05;9.10;;;5.50;;
75758;SDS011;64371;47.566;19.086;2023-04-06T10:45:18;10.55;;;6.07;;
75758;SDS011;64371;47.566;19.086;2023-04-06T10:48:22;11.15;;;5.60;;
75758;SDS011;64371;47.566;19.086;2023-04-06T10:51:27;9.10;;;5.35;;
75758;SDS011;64371;47.566;19.086;2023-04-06T10:54:30;10.52;;;5.57;;
75758;SDS011;64371;47.566;19.086;2023-04-06T10:57:34;9.07;;;5.80;;
75758;SDS011;64371;47.566;19.086;2023-04-06T11:00:43;9.18;;;5.53;;
75758;SDS011;64371;47.566;19.086;2023-04-06T11:03:53;10.48;;;5.43;;
75758;SDS011;64371;47.566;19.086;2023-04-06T11:06:57;10.38;;;5.50;;
75758;SDS011;64371;47.566;19.086;2023-04-06T11:09:59;8.10;;;5.20;;
75758;SDS011;64371;47.566;19.086;2023-04-06T11:13:18;6.33;;;3.80;;
75758;SDS011;64371;47.566;19.086;2023-04-06T11:19:24;9.45;;;5.20;;
75758;SDS011;64371;47.566;19.086;2023-04-06T11:22:27;8.15;;;5.38;;
75758;SDS011;64371;47.566;19.086;2023-04-06T11:25:29;8.75;;;5.05;;
75758;SDS011;64371;47.566;19.086;2023-04-06T11:28:34;7.73;;;4.83;;
75758;SDS011;64371;47.566;19.086;2023-04-06T11:31:40;8.95;;;4.90;;
75758;SDS011;64371;47.566;19.086;2023-04-06T11:34:44;8.48;;;4.40;;
75758;SDS011;64371;47.566;19.086;2023-04-06T11:37:49;8.77;;;5.18;;
75758;SDS011;64371;47.566;19.086;2023-04-06T11:40:53;10.07;;;5.05;;
75758;SDS011;64371;47.566;19.086;2023-04-06T11:43:56;7.97;;;5.17;;
75758;SDS011;64371;47.566;19.086;2023-04-06T11:46:58;10.13;;;5.18;;
75758;SDS011;64371;47.566;19.086;2023-04-06T11:50:12;9.73;;;5.22;;
75758;SDS011;64371;47.566;19.086;2023-04-06T11:53:16;9.02;;;4.97;;
75758;SDS011;64371;47.566;19.086;2023-04-06T11:56:22;9.30;;;4.63;;
75758;SDS011;64371;47.566;19.086;2023-04-06T11:59:26;8.17;;;4.80;;
75758;SDS011;64371;47.566;19.086;2023-04-06T12:02:29;7.53;;;4.70;;
75758;SDS011;64371;47.566;19.086;2023-04-06T12:05:34;10.25;;;4.72;;
75758;SDS011;64371;47.566;19.086;2023-04-06T12:08:36;8.13;;;4.60;;
75758;SDS011;64371;47.566;19.086;2023-04-06T12:11:39;11.25;;;5.22;;
75758;SDS011;64371;47.566;19.086;2023-04-06T12:14:42;8.67;;;4.73;;
75758;SDS011;64371;47.566;19.086;2023-04-06T12:17:45;8.32;;;5.07;;
75758;SDS011;64371;47.566;19.086;2023-04-06T12:20:47;9.93;;;4.80;;
75758;SDS011;64371;47.566;19.086;2023-04-06T12:23:49;9.32;;;4.93;;
75758;SDS011;64371;47.566;19.086;2023-04-06T12:26:52;9.63;;;5.25;;
75758;SDS011;64371;47.566;19.086;2023-04-06T12:30:09;7.97;;;5.43;;
75758;SDS011;64371;47.566;19.086;2023-04-06T12:33:12;8.75;;;5.03;;
75758;SDS011;64371;47.566;19.086;2023-04-06T12:36:15;9.63;;;5.60;;
75758;SDS011;64371;47.566;19.086;2023-04-06T12:39:22;10.00;;;5.30;;
75758;SDS011;64371;47.566;19.086;2023-04-06T12:42:24;9.00;;;4.82;;
75758;SDS011;64371;47.566;19.086;2023-04-06T12:45:27;9.00;;;5.17;;
75758;SDS011;64371;47.566;19.086;2023-04-06T12:48:29;8.45;;;4.78;;
75758;SDS011;64371;47.566;19.086;2023-04-06T12:51:32;8.38;;;4.68;;
75758;SDS011;64371;47.566;19.086;2023-04-06T12:54:34;8.38;;;5.03;;
75758;SDS011;64371;47.566;19.086;2023-04-06T12:57:37;15.63;;;7.72;;
75758;SDS011;64371;47.566;19.086;2023-04-06T13:00:39;12.97;;;7.20;;
75758;SDS011;64371;47.566;19.086;2023-04-06T13:03:42;9.40;;;5.20;;
75758;SDS011;64371;47.566;19.086;2023-04-06T13:06:45;7.82;;;4.90;;
75758;SDS011;64371;47.566;19.086;2023-04-06T13:09:48;9.23;;;4.57;;
75758;SDS011;64371;47.566;19.086;2023-04-06T13:12:51;7.88;;;4.05;;
75758;SDS011;64371;47.566;19.086;2023-04-06T13:15:54;7.73;;;4.33;;
75758;SDS011;64371;47.566;19.086;2023-04-06T13:19:01;7.93;;;4.50;;
75758;SDS011;64371;47.566;19.086;2023-04-06T13:22:03;8.35;;;4.35;;
75758;SDS011;64371;47.566;19.086;2023-04-06T13:25:05;9.60;;;4.50;;
75758;SDS011;64371;47.566;19.086;2023-04-06T13:28:08;7.25;;;4.22;;
75758;SDS011;64371;47.566;19.086;2023-04-06T13:31:12;8.50;;;4.77;;
75758;SDS011;64371;47.566;19.086;2023-04-06T13:34:14;8.90;;;4.60;;
75758;SDS011;64371;47.566;19.086;2023-04-06T13:37:17;6.40;;;4.20;;
75758;SDS011;64371;47.566;19.086;2023-04-06T13:40:19;8.20;;;4.28;;
75758;SDS011;64371;47.566;19.086;2023-04-06T13:43:22;8.32;;;4.90;;
75758;SDS011;64371;47.566;19.086;2023-04-06T13:46:27;10.03;;;4.30;;
75758;SDS011;64371;47.566;19.086;2023-04-06T13:49:30;7.57;;;4.70;;
75758;SDS011;64371;47.566;19.086;2023-04-06T13:52:32;9.70;;;4.85;;
75758;SDS011;64371;47.566;19.086;2023-04-06T13:55:35;8.50;;;4.50;;
75758;SDS011;64371;47.566;19.086;2023-04-06T13:58:38;8.43;;;3.63;;
75758;SDS011;64371;47.566;19.086;2023-04-06T14:01:40;7.30;;;4.07;;
75758;SDS011;64371;47.566;19.086;2023-04-06T14:04:42;6.82;;;4.15;;
75758;SDS011;64371;47.566;19.086;2023-04-06T14:07:45;7.93;;;4.20;;
75758;SDS011;64371;47.566;19.086;2023-04-06T14:10:47;6.85;;;4.47;;
75758;SDS011;64371;47.566;19.086;2023-04-06T14:13:49;8.98;;;4.53;;
75758;SDS011;64371;47.566;19.086;2023-04-06T14:16:51;7.37;;;4.00;;
75758;SDS011;64371;47.566;19.086;2023-04-06T14:19:54;7.72;;;4.30;;
75758;SDS011;64371;47.566;19.086;2023-04-06T14:22:56;6.90;;;4.30;;
75758;SDS011;64371;47.566;19.086;2023-04-06T14:26:05;7.70;;;4.55;;
75758;SDS011;64371;47.566;19.086;2023-04-06T14:29:08;10.65;;;5.05;;
75758;SDS011;64371;47.566;19.086;2023-04-06T14:32:11;6.83;;;3.87;;
75758;SDS011;64371;47.566;19.086;2023-04-06T14:35:13;8.43;;;4.55;;
75758;SDS011;64371;47.566;19.086;2023-04-06T14:38:16;11.23;;;5.78;;
75758;SDS011;64371;47.566;19.086;2023-04-06T14:41:19;9.48;;;5.35;;
75758;SDS011;64371;47.566;19.086;2023-04-06T14:44:22;9.00;;;5.07;;
75758;SDS011;64371;47.566;19.086;2023-04-06T14:47:24;13.80;;;6.60;;
75758;SDS011;64371;47.566;19.086;2023-04-06T14:50:27;7.68;;;4.22;;
75758;SDS011;64371;47.566;19.086;2023-04-06T14:53:29;9.88;;;5.32;;
75758;SDS011;64371;47.566;19.086;2023-04-06T14:56:31;8.82;;;4.88;;
75758;SDS011;64371;47.566;19.086;2023-04-06T14:59:34;7.20;;;4.55;;
75758;SDS011;64371;47.566;19.086;2023-04-06T15:02:40;8.47;;;4.13;;
75758;SDS011;64371;47.566;19.086;2023-04-06T15:05:45;8.30;;;4.65;;
75758;SDS011;64371;47.566;19.086;2023-04-06T15:08:47;7.72;;;4.75;;
75758;SDS011;64371;47.566;19.086;2023-04-06T15:11:51;10.25;;;5.50;;
75758;SDS011;64371;47.566;19.086;2023-04-06T15:14:53;8.25;;;4.53;;
75758;SDS011;64371;47.566;19.086;2023-04-06T15:17:56;7.27;;;4.73;;
75758;SDS011;64371;47.566;19.086;2023-04-06T15:20:58;11.88;;;5.00;;
75758;SDS011;64371;47.566;19.086;2023-04-06T15:24:00;10.68;;;5.15;;
75758;SDS011;64371;47.566;19.086;2023-04-06T15:27:03;9.35;;;5.45;;
75758;SDS011;64371;47.566;19.086;2023-04-06T15:30:06;8.23;;;4.88;;
75758;SDS011;64371;47.566;19.086;2023-04-06T15:33:08;11.70;;;5.53;;
75758;SDS011;64371;47.566;19.086;2023-04-06T15:36:17;10.38;;;5.60;;
75758;SDS011;64371;47.566;19.086;2023-04-06T15:39:26;8.35;;;5.57;;
75758;SDS011;64371;47.566;19.086;2023-04-06T15:42:29;9.70;;;5.93;;
75758;SDS011;64371;47.566;19.086;2023-04-06T15:45:31;9.38;;;4.68;;
75758;SDS011;64371;47.566;19.086;2023-04-06T15:48:33;11.67;;;5.97;;
75758;SDS011;64371;47.566;19.086;2023-04-06T15:51:36;9.45;;;5.22;;
75758;SDS011;64371;47.566;19.086;2023-04-06T15:54:38;9.80;;;5.25;;
75758;SDS011;64371;47.566;19.086;2023-04-06T15:57:41;12.32;;;5.80;;
75758;SDS011;64371;47.566;19.086;2023-04-06T16:00:44;10.93;;;5.05;;
75758;SDS011;64371;47.566;19.086;2023-04-06T16:03:46;9.70;;;5.27;;
75758;SDS011;64371;47.566;19.086;2023-04-06T16:06:49;9.48;;;4.22;;
75758;SDS011;64371;47.566;19.086;2023-04-06T16:09:52;15.65;;;6.47;;
75758;SDS011;64371;47.566;19.086;2023-04-06T16:12:54;10.77;;;5.35;;
75758;SDS011;64371;47.566;19.086;2023-04-06T16:15:56;9.82;;;5.85;;
75758;SDS011;64371;47.566;19.086;2023-04-06T16:18:59;12.90;;;6.43;;
75758;SDS011;64371;47.566;19.086;2023-04-06T16:22:01;11.00;;;6.00;;
75758;SDS011;64371;47.566;19.086;2023-04-06T16:25:03;8.85;;;6.00;;
75758;SDS011;64371;47.566;19.086;2023-04-06T16:28:06;10.15;;;5.72;;
75758;SDS011;64371;47.566;19.086;2023-04-06T16:31:15;12.20;;;5.05;;
75758;SDS011;64371;47.566;19.086;2023-04-06T16:34:19;11.53;;;5.07;;
75758;SDS011;64371;47.566;19.086;2023-04-06T16:37:22;13.00;;;6.80;;
75758;SDS011;64371;47.566;19.086;2023-04-06T16:40:24;12.65;;;6.53;;
75758;SDS011;64371;47.566;19.086;2023-04-06T16:43:27;14.02;;;6.88;;
75758;SDS011;64371;47.566;19.086;2023-04-06T16:46:30;13.43;;;7.30;;
75758;SDS011;64371;47.566;19.086;2023-04-06T16:49:39;13.40;;;6.40;;
75758;SDS011;64371;47.566;19.086;2023-04-06T16:52:42;14.77;;;7.72;;
75758;SDS011;64371;47.566;19.086;2023-04-06T16:55:44;14.00;;;7.53;;
75758;SDS011;64371;47.566;19.086;2023-04-06T16:58:47;11.90;;;6.45;;
75758;SDS011;64371;47.566;19.086;2023-04-06T17:01:49;11.07;;;7.00;;
75758;SDS011;64371;47.566;19.086;2023-04-06T17:04:52;11.33;;;6.03;;
75758;SDS011;64371;47.566;19.086;2023-04-06T17:07:54;12.88;;;7.15;;
75758;SDS011;64371;47.566;19.086;2023-04-06T17:10:57;16.50;;;9.40;;
75758;SDS011;64371;47.566;19.086;2023-04-06T17:14:06;13.90;;;7.50;;
75758;SDS011;64371;47.566;19.086;2023-04-06T17:17:09;16.20;;;9.13;;
75758;SDS011;64371;47.566;19.086;2023-04-06T17:20:12;12.33;;;7.53;;
75758;SDS011;64371;47.566;19.086;2023-04-06T17:23:14;14.00;;;8.00;;
75758;SDS011;64371;47.566;19.086;2023-04-06T17:26:17;12.70;;;7.18;;
75758;SDS011;64371;47.566;19.086;2023-04-06T17:29:19;11.32;;;5.90;;
75758;SDS011;64371;47.566;19.086;2023-04-06T17:32:22;11.68;;;6.95;;
75758;SDS011;64371;47.566;19.086;2023-04-06T17:35:24;14.53;;;7.43;;
75758;SDS011;64371;47.566;19.086;2023-04-06T17:38:27;14.40;;;7.82;;
75758;SDS011;64371;47.566;19.086;2023-04-06T17:41:29;15.32;;;9.25;;
75758;SDS011;64371;47.566;19.086;2023-04-06T17:44:33;14.60;;;8.00;;
75758;SDS011;64371;47.566;19.086;2023-04-06T17:47:36;15.48;;;8.43;;
75758;SDS011;64371;47.566;19.086;2023-04-06T17:50:38;13.70;;;8.73;;
75758;SDS011;64371;47.566;19.086;2023-04-06T17:53:40;16.27;;;8.63;;
75758;SDS011;64371;47.566;19.086;2023-04-06T17:56:42;15.82;;;8.77;;
75758;SDS011;64371;47.566;19.086;2023-04-06T17:59:45;15.48;;;8.82;;
75758;SDS011;64371;47.566;19.086;2023-04-06T18:02:47;15.75;;;9.20;;
75758;SDS011;64371;47.566;19.086;2023-04-06T18:05:49;14.17;;;8.33;;